Time;durP1;ratioP1;P1;durP2;ratioP2;P2;SDS_P1;SDS_P2;PMS_P1;PMS_P2;Temp;Humidity;BMP_temperature;BMP_pressure;BME280_temperature;BME280_humidity;BME280_pressure;Samples;Min_cycle;Max_cycle;Signal;HPM_P1;HPM_P2
2023/08/03 00:06:23;;;;;;;5.57;1.55;;;;;;;;;;4861309;29;20048;-77
2023/08/03 00:11:53;;;;;;;3.67;1.33;;;;;;;;;;4875181;29;20142;-78
2023/08/03 00:14:20;;;;;;;3.75;1.10;;;;;;;;;;4864629;29;20137;-77
2023/08/03 00:16:51;;;;;;;2.53;1.05;;;;;;;;;;4890683;29;20097;-77
2023/08/03 00:19:18;;;;;;;5.93;1.60;;;;;;;;;;4897237;29;20067;-78
2023/08/03 00:21:43;;;;;;;6.20;1.38;;;;;;;;;;4901614;29;20043;-78
2023/08/03 00:24:11;;;;;;;9.15;1.63;;;;;;;;;;4902326;29;20029;-78
2023/08/03 00:26:37;;;;;;;5.18;1.48;;;;;;;;;;4901036;29;20025;-77
2023/08/03 00:29:06;;;;;;;6.35;2.55;;;;;;;;;;4901761;29;20097;-78
2023/08/03 00:31:31;;;;;;;5.72;1.30;;;;;;;;;;4883795;29;20057;-77
2023/08/03 00:33:57;;;;;;;6.68;1.30;;;;;;;;;;4873897;29;20056;-78
2023/08/03 00:36:22;;;;;;;6.15;1.35;;;;;;;;;;4867576;29;20067;-78
2023/08/03 00:38:48;;;;;;;6.88;1.40;;;;;;;;;;4879626;29;20424;-78
2023/08/03 00:41:16;;;;;;;6.37;1.77;;;;;;;;;;4849333;29;20223;-77
2023/08/03 00:43:42;;;;;;;6.85;2.28;;;;;;;;;;4916290;29;20111;-78
2023/08/03 00:46:07;;;;;;;5.07;1.35;;;;;;;;;;4917011;29;20072;-77
2023/08/03 00:48:33;;;;;;;5.68;1.55;;;;;;;;;;4899981;29;20481;-77
2023/08/03 00:50:58;;;;;;;3.58;1.30;;;;;;;;;;4916597;29;20032;-77
2023/08/03 00:53:24;;;;;;;7.88;1.15;;;;;;;;;;4899198;29;20035;-78
2023/08/03 00:55:49;;;;;;;11.52;2.60;;;;;;;;;;4915946;29;20593;-78
2023/08/03 00:58:15;;;;;;;7.13;1.70;;;;;;;;;;4915758;29;20443;-78
2023/08/03 01:00:41;;;;;;;5.13;1.60;;;;;;;;;;4882977;29;20040;-78
2023/08/03 01:03:06;;;;;;;5.40;1.50;;;;;;;;;;4898795;29;20484;-78
2023/08/03 01:05:35;;;;;;;5.03;1.52;;;;;;;;;;4883331;29;20084;-77
2023/08/03 01:08:00;;;;;;;5.40;1.80;;;;;;;;;;4898748;29;20028;-78
2023/08/03 01:10:27;;;;;;;6.85;1.60;;;;;;;;;;4915745;29;20519;-78
2023/08/03 01:12:53;;;;;;;9.57;2.00;;;;;;;;;;4898833;29;20048;-77
2023/08/03 01:15:18;;;;;;;5.18;1.40;;;;;;;;;;4883336;29;20036;-77
2023/08/03 01:17:44;;;;;;;8.02;2.08;;;;;;;;;;4894195;29;20111;-77
2023/08/03 01:20:10;;;;;;;4.82;1.15;;;;;;;;;;4896710;29;20021;-77
2023/08/03 01:22:37;;;;;;;6.00;1.90;;;;;;;;;;4896715;29;20033;-79
2023/08/03 01:25:03;;;;;;;6.38;1.60;;;;;;;;;;4896647;29;20060;-79
2023/08/03 01:27:28;;;;;;;6.50;1.30;;;;;;;;;;4896719;29;20420;-77
2023/08/03 01:29:54;;;;;;;6.55;1.30;;;;;;;;;;4879880;29;20063;-78
2023/08/03 01:32:20;;;;;;;8.57;1.50;;;;;;;;;;4896815;29;20028;-77
2023/08/03 01:34:47;;;;;;;8.90;1.55;;;;;;;;;;4883883;29;20032;-78
2023/08/03 01:37:13;;;;;;;5.07;1.43;;;;;;;;;;4883178;29;20450;-77
2023/08/03 01:39:43;;;;;;;6.50;1.52;;;;;;;;;;4898611;29;20047;-77
2023/08/03 01:42:08;;;;;;;8.15;1.58;;;;;;;;;;4898590;29;20040;-77
2023/08/03 01:44:34;;;;;;;7.47;1.27;;;;;;;;;;4916017;29;20063;-77
2023/08/03 01:46:59;;;;;;;8.85;1.98;;;;;;;;;;4917197;29;20064;-76
2023/08/03 01:49:26;;;;;;;5.97;1.33;;;;;;;;;;4917240;29;20028;-77
2023/08/03 01:51:52;;;;;;;5.18;1.23;;;;;;;;;;4902084;29;20036;-76
2023/08/03 01:54:17;;;;;;;6.95;1.52;;;;;;;;;;4919678;29;20119;-79
2023/08/03 01:56:43;;;;;;;7.85;1.60;;;;;;;;;;4919578;29;20506;-78
2023/08/03 01:59:08;;;;;;;5.95;1.40;;;;;;;;;;4902708;29;20040;-77
2023/08/03 02:01:34;;;;;;;4.40;1.20;;;;;;;;;;4906269;29;20032;-78
2023/08/03 02:04:00;;;;;;;7.45;1.50;;;;;;;;;;4907380;29;20439;-77
2023/08/03 02:06:25;;;;;;;8.38;1.50;;;;;;;;;;4901159;29;20032;-77
2023/08/03 02:08:51;;;;;;;6.35;1.50;;;;;;;;;;4918548;29;20032;-78
2023/08/03 02:11:17;;;;;;;8.02;1.40;;;;;;;;;;4901894;29;20048;-77
2023/08/03 02:13:43;;;;;;;8.73;1.80;;;;;;;;;;4901391;29;20036;-78
2023/08/03 02:16:10;;;;;;;4.35;1.30;;;;;;;;;;4901583;29;20040;-77
2023/08/03 02:18:37;;;;;;;12.13;2.55;;;;;;;;;;4918386;29;20530;-76
2023/08/03 02:21:03;;;;;;;8.05;1.42;;;;;;;;;;4901678;29;20032;-77
2023/08/03 02:23:28;;;;;;;7.07;1.60;;;;;;;;;;4869383;29;20036;-77
2023/08/03 02:25:54;;;;;;;8.27;1.45;;;;;;;;;;4885955;29;20035;-77
2023/08/03 02:28:20;;;;;;;7.00;1.55;;;;;;;;;;4885681;29;20028;-78
2023/08/03 02:30:46;;;;;;;4.30;1.20;;;;;;;;;;4901388;29;20028;-77
2023/08/03 02:33:13;;;;;;;7.97;1.73;;;;;;;;;;4885645;29;20135;-77
2023/08/03 02:35:39;;;;;;;7.70;1.67;;;;;;;;;;4901321;29;20519;-77
2023/08/03 02:38:06;;;;;;;6.90;1.30;;;;;;;;;;4886134;29;20040;-78
2023/08/03 02:40:32;;;;;;;5.25;1.50;;;;;;;;;;4869846;29;20399;-78
2023/08/03 02:42:57;;;;;;;8.38;1.50;;;;;;;;;;4887140;29;20132;-78
2023/08/03 02:45:24;;;;;;;9.00;1.35;;;;;;;;;;4888062;29;20035;-78
2023/08/03 02:47:51;;;;;;;6.72;1.23;;;;;;;;;;4888435;29;20118;-78
2023/08/03 02:50:21;;;;;;;6.70;1.30;;;;;;;;;;4906052;29;20039;-78
2023/08/03 02:52:49;;;;;;;5.53;1.52;;;;;;;;;;4913240;29;20040;-78
2023/08/03 02:55:16;;;;;;;7.63;1.85;;;;;;;;;;4926031;29;20043;-77
2023/08/03 02:57:43;;;;;;;5.57;1.20;;;;;;;;;;4898573;29;20044;-78
2023/08/03 03:00:10;;;;;;;7.00;1.53;;;;;;;;;;4901410;29;20041;-77
2023/08/03 03:02:37;;;;;;;7.22;1.42;;;;;;;;;;4898763;29;20127;-78
2023/08/03 03:05:03;;;;;;;4.32;1.38;;;;;;;;;;4884923;29;20044;-78
2023/08/03 03:07:33;;;;;;;7.95;1.40;;;;;;;;;;4882524;29;20041;-79
2023/08/03 03:09:59;;;;;;;4.90;1.27;;;;;;;;;;4908800;29;20029;-78
2023/08/03 03:12:26;;;;;;;8.43;1.75;;;;;;;;;;4883826;29;20449;-79
2023/08/03 03:14:52;;;;;;;6.07;1.40;;;;;;;;;;4882153;29;20528;-79
2023/08/03 03:17:18;;;;;;;6.53;1.70;;;;;;;;;;4882312;29;20028;-79
2023/08/03 03:19:46;;;;;;;7.72;1.38;;;;;;;;;;4866848;29;20056;-78
2023/08/03 03:22:12;;;;;;;11.82;2.28;;;;;;;;;;4882968;29;20496;-78
2023/08/03 03:24:39;;;;;;;7.47;1.70;;;;;;;;;;4899717;29;20108;-78
2023/08/03 03:27:05;;;;;;;4.00;1.13;;;;;;;;;;4899770;29;20071;-78
2023/08/03 03:29:33;;;;;;;;;;;;;;;;;;4875713;29;20453;-77
2023/08/03 03:31:59;;;;;;;7.15;1.60;;;;;;;;;;4918119;29;19966;-79
2023/08/03 03:34:26;;;;;;;8.10;1.45;;;;;;;;;;4900701;29;20036;-79
2023/08/03 03:36:53;;;;;;;13.95;1.98;;;;;;;;;;4900152;29;20036;-79
2023/08/03 03:39:19;;;;;;;6.13;1.33;;;;;;;;;;4884084;29;20055;-77
2023/08/03 03:41:45;;;;;;;13.45;2.20;;;;;;;;;;4899965;29;20383;-78
2023/08/03 03:44:13;;;;;;;7.00;1.50;;;;;;;;;;4899275;29;20054;-78
2023/08/03 03:46:39;;;;;;;9.30;1.75;;;;;;;;;;4900155;29;20036;-79
2023/08/03 03:49:04;;;;;;;11.43;1.73;;;;;;;;;;4900050;29;20036;-78
2023/08/03 03:51:32;;;;;;;5.70;1.40;;;;;;;;;;4884443;29;20108;-80
2023/08/03 03:53:59;;;;;;;10.88;1.50;;;;;;;;;;4884346;29;20294;-78
2023/08/03 03:56:25;;;;;;;5.95;1.33;;;;;;;;;;4916727;29;20028;-78
2023/08/03 03:58:50;;;;;;;7.50;2.00;;;;;;;;;;4916689;29;20034;-78
2023/08/03 04:01:16;;;;;;;13.32;1.60;;;;;;;;;;4916532;29;20104;-78
2023/08/03 04:03:42;;;;;;;6.00;1.48;;;;;;;;;;4915347;29;20028;-78
2023/08/03 04:06:09;;;;;;;6.00;1.30;;;;;;;;;;4884098;29;20064;-78
2023/08/03 04:08:35;;;;;;;14.18;1.83;;;;;;;;;;4899511;29;20059;-77
2023/08/03 04:11:00;;;;;;;7.03;1.50;;;;;;;;;;4899365;29;20043;-77
2023/08/03 04:13:28;;;;;;;9.90;1.50;;;;;;;;;;4915895;29;20115;-78
2023/08/03 04:15:55;;;;;;;5.88;2.05;;;;;;;;;;4869227;29;20511;-78
2023/08/03 04:18:20;;;;;;;11.93;1.63;;;;;;;;;;4916016;29;20032;-77
2023/08/03 04:20:46;;;;;;;7.65;1.48;;;;;;;;;;4885067;29;20118;-77
2023/08/03 04:23:11;;;;;;;8.60;1.60;;;;;;;;;;4917039;29;20033;-78
2023/08/03 04:25:37;;;;;;;5.88;1.75;;;;;;;;;;4909531;29;20031;-77
2023/08/03 04:28:13;;;;;;;9.18;1.52;;;;;;;;;;4923483;29;20042;-77
2023/08/03 04:30:39;;;;;;;8.98;1.40;;;;;;;;;;4891549;29;20091;-78
2023/08/03 04:33:05;;;;;;;7.93;1.45;;;;;;;;;;4893017;29;20048;-76
2023/08/03 04:35:34;;;;;;;13.60;2.55;;;;;;;;;;4906399;29;20032;-78
2023/08/03 04:38:08;;;;;;;10.45;1.73;;;;;;;;;;4887514;29;20103;-78
2023/08/03 04:40:36;;;;;;;6.47;1.80;;;;;;;;;;4899519;29;20544;-77
2023/08/03 04:43:02;;;;;;;8.32;1.63;;;;;;;;;;4898777;29;20091;-78
2023/08/03 04:45:28;;;;;;;4.88;1.63;;;;;;;;;;4916006;29;20111;-77
2023/08/03 04:47:55;;;;;;;6.22;1.52;;;;;;;;;;4883975;29;20035;-78
2023/08/03 04:50:22;;;;;;;9.40;1.50;;;;;;;;;;4915087;29;20032;-77
2023/08/03 04:52:49;;;;;;;10.20;1.60;;;;;;;;;;4883549;29;20083;-78
2023/08/03 04:55:17;;;;;;;4.75;1.35;;;;;;;;;;4883786;29;20483;-77
2023/08/03 04:57:43;;;;;;;11.25;1.77;;;;;;;;;;4899035;29;20032;-78
2023/08/03 05:00:09;;;;;;;5.10;1.13;;;;;;;;;;4898837;29;20528;-78
2023/08/03 05:02:35;;;;;;;8.82;1.40;;;;;;;;;;4916499;29;20119;-77
2023/08/03 05:05:00;;;;;;;6.15;1.20;;;;;;;;;;4900219;29;20063;-80
2023/08/03 05:07:27;;;;;;;15.90;2.67;;;;;;;;;;4883792;29;20515;-80
2023/08/03 05:09:53;;;;;;;9.40;1.60;;;;;;;;;;4885214;29;20032;-78
2023/08/03 05:12:19;;;;;;;9.57;2.33;;;;;;;;;;4900761;29;20408;-79
2023/08/03 05:14:44;;;;;;;4.80;1.40;;;;;;;;;;4916515;29;20499;-80
2023/08/03 05:17:10;;;;;;;6.70;1.10;;;;;;;;;;4917324;29;20099;-77
2023/08/03 05:19:35;;;;;;;7.38;1.50;;;;;;;;;;4917044;29;20091;-79
2023/08/03 05:22:01;;;;;;;8.93;1.40;;;;;;;;;;4900080;29;20054;-78
2023/08/03 05:24:26;;;;;;;11.73;1.60;;;;;;;;;;4920903;29;20103;-79
2023/08/03 05:26:52;;;;;;;7.50;1.33;;;;;;;;;;4922337;29;20476;-78
2023/08/03 05:29:18;;;;;;;6.50;1.23;;;;;;;;;;4924379;29;20555;-78
2023/08/03 05:31:46;;;;;;;8.05;1.40;;;;;;;;;;4922052;28;20032;-79
2023/08/03 05:34:12;;;;;;;7.53;1.30;;;;;;;;;;4911204;29;20025;-79
2023/08/03 05:36:37;;;;;;;4.53;1.55;;;;;;;;;;4927599;28;20183;-79
2023/08/03 05:39:03;;;;;;;9.55;1.33;;;;;;;;;;4942117;28;20036;-80
2023/08/03 05:41:29;;;;;;;5.18;1.15;;;;;;;;;;4925189;29;20020;-79
2023/08/03 05:43:54;;;;;;;9.02;1.60;;;;;;;;;;4919802;29;20487;-79
2023/08/03 05:46:20;;;;;;;9.40;1.70;;;;;;;;;;4914085;29;20363;-79
2023/08/03 05:48:49;;;;;;;4.70;1.40;;;;;;;;;;4905931;29;20372;-78
2023/08/03 05:51:21;;;;;;;8.15;1.20;;;;;;;;;;4920121;29;20028;-80
2023/08/03 05:53:47;;;;;;;7.97;1.20;;;;;;;;;;4920191;29;20024;-81
2023/08/03 05:56:12;;;;;;;8.93;1.30;;;;;;;;;;4902505;29;20406;-80
2023/08/03 05:58:38;;;;;;;7.75;1.67;;;;;;;;;;4920045;29;20032;-79
2023/08/03 06:01:03;;;;;;;5.75;1.30;;;;;;;;;;4920113;29;20392;-81
2023/08/03 06:03:31;;;;;;;4.80;1.63;;;;;;;;;;4887508;29;20364;-78
2023/08/03 06:05:59;;;;;;;5.70;1.50;;;;;;;;;;4902304;29;20036;-84
2023/08/03 06:08:26;;;;;;;8.20;1.10;;;;;;;;;;4902334;29;20032;-85
2023/08/03 06:10:52;;;;;;;6.85;1.17;;;;;;;;;;4871050;29;20036;-83
2023/08/03 06:13:19;;;;;;;6.65;1.23;;;;;;;;;;4918321;29;20031;-83
2023/08/03 06:15:45;;;;;;;5.97;1.00;;;;;;;;;;4902154;29;20040;-84
2023/08/03 06:18:15;;;;;;;8.68;1.08;;;;;;;;;;4902679;29;20515;-85
2023/08/03 06:20:43;;;;;;;6.25;1.20;;;;;;;;;;4902276;29;20034;-85
2023/08/03 06:23:16;;;;;;;5.47;1.00;;;;;;;;;;4901421;29;20028;-83
2023/08/03 06:25:42;;;;;;;6.18;1.08;;;;;;;;;;4886283;29;20036;-84
2023/08/03 06:28:09;;;;;;;4.78;1.05;;;;;;;;;;4886336;29;20084;-85
2023/08/03 06:30:35;;;;;;;3.75;1.00;;;;;;;;;;4918330;29;20468;-83
2023/08/03 06:33:00;;;;;;;4.13;1.00;;;;;;;;;;4902583;29;20064;-84
2023/08/03 06:35:34;;;;;;;5.63;0.82;;;;;;;;;;4901429;29;20047;-85
2023/08/03 06:38:01;;;;;;;6.97;1.05;;;;;;;;;;4886173;29;20139;-79
2023/08/03 06:40:27;;;;;;;674.17;314.15;;;;;;;;;;4918520;29;20040;-85
2023/08/03 06:42:53;;;;;;;11.32;5.18;;;;;;;;;;4903167;29;20035;-87
2023/08/03 06:45:18;;;;;;;9.60;1.10;;;;;;;;;;4886864;29;20043;-80
2023/08/03 06:47:44;;;;;;;5.97;0.93;;;;;;;;;;4916887;29;20480;-76
2023/08/03 06:50:10;;;;;;;4.15;0.90;;;;;;;;;;4901593;29;20031;-76
2023/08/03 06:52:35;;;;;;;3.72;0.80;;;;;;;;;;4918667;29;20084;-77
2023/08/03 06:55:01;;;;;;;7.55;0.80;;;;;;;;;;4902014;29;20056;-78
2023/08/03 06:57:26;;;;;;;3.30;0.65;;;;;;;;;;4920150;29;20107;-78
2023/08/03 06:59:53;;;;;;;4.13;0.80;;;;;;;;;;4904989;29;20089;-75
2023/08/03 07:02:19;;;;;;;3.25;0.77;;;;;;;;;;4901906;29;20088;-78
2023/08/03 07:04:44;;;;;;;2.45;0.70;;;;;;;;;;4900002;29;20047;-78
2023/08/03 07:07:10;;;;;;;4.75;0.90;;;;;;;;;;4917668;29;20096;-76
2023/08/03 07:09:35;;;;;;;3.72;0.88;;;;;;;;;;4917547;29;20476;-77
2023/08/03 07:12:01;;;;;;;2.67;0.60;;;;;;;;;;4917540;29;20032;-77
2023/08/03 07:14:26;;;;;;;3.85;0.80;;;;;;;;;;4917442;29;20547;-77
2023/08/03 07:16:52;;;;;;;3.63;0.80;;;;;;;;;;4917618;29;20040;-77
2023/08/03 07:19:18;;;;;;;3.42;0.85;;;;;;;;;;4917478;29;20039;-77
2023/08/03 07:21:43;;;;;;;3.97;1.13;;;;;;;;;;4916495;29;20031;-79
2023/08/03 07:24:09;;;;;;;3.42;1.10;;;;;;;;;;4884383;29;20036;-77
2023/08/03 07:26:35;;;;;;;3.75;1.00;;;;;;;;;;4900559;29;20032;-79
2023/08/03 07:29:00;;;;;;;2.00;0.75;;;;;;;;;;4917192;29;20449;-78
2023/08/03 07:31:27;;;;;;;6.45;1.88;;;;;;;;;;4900457;29;20452;-78
2023/08/03 07:33:53;;;;;;;1.95;0.60;;;;;;;;;;4917794;29;20032;-79
2023/08/03 07:36:19;;;;;;;4.50;0.70;;;;;;;;;;4900757;29;20036;-78
2023/08/03 07:38:44;;;;;;;2.65;0.75;;;;;;;;;;4883788;29;20036;-79
2023/08/03 07:41:10;;;;;;;4.85;1.20;;;;;;;;;;4900803;29;20043;-78
2023/08/03 07:43:35;;;;;;;2.13;0.47;;;;;;;;;;4900876;29;20078;-80
2023/08/03 07:46:01;;;;;;;3.75;0.90;;;;;;;;;;4900500;29;20087;-79
2023/08/03 07:48:27;;;;;;;2.85;0.65;;;;;;;;;;4900734;29;20479;-78
2023/08/03 07:50:53;;;;;;;3.60;0.88;;;;;;;;;;4917239;29;20096;-80
2023/08/03 07:53:18;;;;;;;2.67;0.68;;;;;;;;;;4899615;29;20419;-78
2023/08/03 07:55:44;;;;;;;2.80;0.73;;;;;;;;;;4917982;29;20384;-80
2023/08/03 07:58:10;;;;;;;2.35;0.68;;;;;;;;;;4920155;29;20123;-78
2023/08/03 08:00:36;;;;;;;2.33;0.63;;;;;;;;;;4905735;29;20033;-76
2023/08/03 08:03:01;;;;;;;3.03;0.82;;;;;;;;;;4888926;29;20117;-77
2023/08/03 08:05:27;;;;;;;3.63;0.70;;;;;;;;;;4903183;29;20031;-79
2023/08/03 08:07:53;;;;;;;4.68;0.85;;;;;;;;;;4906614;28;20072;-78
2023/08/03 08:10:18;;;;;;;4.15;0.60;;;;;;;;;;4920209;29;20058;-78
2023/08/03 08:12:44;;;;;;;2.35;0.52;;;;;;;;;;4938522;28;20044;-79
2023/08/03 08:15:10;;;;;;;6.13;0.70;;;;;;;;;;4921296;29;20471;-79
2023/08/03 08:17:35;;;;;;;2.92;0.73;;;;;;;;;;4894266;29;20435;-78
2023/08/03 08:20:01;;;;;;;3.30;0.77;;;;;;;;;;4904016;29;20539;-79
2023/08/03 08:22:26;;;;;;;3.13;0.60;;;;;;;;;;4922237;29;20456;-79
2023/08/03 08:24:52;;;;;;;2.85;0.70;;;;;;;;;;4886926;29;20078;-77
2023/08/03 08:27:17;;;;;;;5.75;0.55;;;;;;;;;;4917555;29;20033;-78
2023/08/03 08:29:46;;;;;;;2.70;0.60;;;;;;;;;;4917238;29;20099;-78
2023/08/03 08:32:12;;;;;;;;;;;;;;;;;;4918059;29;20032;-77
2023/08/03 08:34:37;;;;;;;3.13;0.80;;;;;;;;;;4884779;29;20522;-79
2023/08/03 08:37:03;;;;;;;4.93;0.65;;;;;;;;;;4900394;29;20036;-78
2023/08/03 08:39:32;;;;;;;1.20;0.40;;;;;;;;;;4935223;23;20438;-75
2023/08/03 08:41:57;;;;;;;;;;;;;;;;;;4981971;28;20042;-75
2023/08/03 08:44:23;;;;;;;0.80;0.40;;;;;;;;;;4973463;28;19910;-75
2023/08/03 08:46:48;;;;;;;2.83;0.68;;;;;;;;;;4957139;28;20386;-75
2023/08/03 08:49:14;;;;;;;1.60;0.60;;;;;;;;;;4968256;28;20501;-75
2023/08/03 08:51:41;;;;;;;4.88;0.60;;;;;;;;;;4937263;29;20035;-74
2023/08/03 08:54:07;;;;;;;3.83;0.60;;;;;;;;;;4954352;29;20038;-74
2023/08/03 08:56:33;;;;;;;3.75;0.50;;;;;;;;;;4954913;29;20035;-73
2023/08/03 08:58:59;;;;;;;1.70;0.55;;;;;;;;;;4936547;29;20483;-75
2023/08/03 09:01:24;;;;;;;5.68;0.63;;;;;;;;;;4937754;29;20032;-75
2023/08/03 09:03:56;;;;;;;3.28;0.70;;;;;;;;;;4955097;29;20398;-75
2023/08/03 09:06:22;;;;;;;1.85;0.80;;;;;;;;;;4953439;29;20139;-74
2023/08/03 09:08:52;;;;;;;3.88;0.50;;;;;;;;;;4954267;28;20107;-75
2023/08/03 09:11:17;;;;;;;2.13;0.73;;;;;;;;;;4936881;29;20495;-77
2023/08/03 09:13:45;;;;;;;1.67;0.50;;;;;;;;;;4957473;28;20050;-75
2023/08/03 09:16:24;;;;;;;1.80;0.40;;;;;;;;;;4940209;28;20042;-75
2023/08/03 09:18:49;;;;;;;;;;;;;;;;;;4956157;28;20035;-75
2023/08/03 09:21:16;;;;;;;3.00;0.60;;;;;;;;;;4973455;28;20062;-76
2023/08/03 09:23:42;;;;;;;2.08;0.60;;;;;;;;;;4972920;28;20449;-75
2023/08/03 09:26:09;;;;;;;3.65;0.45;;;;;;;;;;4972965;28;20033;-75
2023/08/03 09:28:35;;;;;;;1.27;0.40;;;;;;;;;;4940299;28;20035;-75
2023/08/03 09:31:01;;;;;;;1.75;0.32;;;;;;;;;;4939005;28;20038;-75
2023/08/03 09:33:27;;;;;;;1.98;0.50;;;;;;;;;;4955932;28;20042;-76
2023/08/03 09:36:03;;;;;;;1.17;0.32;;;;;;;;;;4973203;28;20030;-76
2023/08/03 09:38:29;;;;;;;2.38;0.60;;;;;;;;;;4973018;28;20118;-76
2023/08/03 09:40:55;;;;;;;2.13;0.60;;;;;;;;;;4955899;28;20121;-76
2023/08/03 09:43:22;;;;;;;3.05;0.50;;;;;;;;;;4972780;28;20058;-76
2023/08/03 09:45:48;;;;;;;2.50;0.80;;;;;;;;;;4972367;28;20134;-77
2023/08/03 09:48:14;;;;;;;1.80;0.40;;;;;;;;;;4970958;28;20139;-75
2023/08/03 09:50:41;;;;;;;2.10;0.57;;;;;;;;;;4955100;28;20054;-75
2023/08/03 09:53:13;;;;;;;5.60;0.70;;;;;;;;;;4955289;28;20094;-74
2023/08/03 09:55:42;;;;;;;2.53;0.60;;;;;;;;;;4972557;28;20031;-76
2023/08/03 09:58:10;;;;;;;1.45;0.63;;;;;;;;;;4955343;28;20035;-75
2023/08/03 10:00:35;;;;;;;5.55;0.60;;;;;;;;;;4972522;28;20110;-75
2023/08/03 10:03:12;;;;;;;1.67;0.45;;;;;;;;;;4954030;28;20122;-75
2023/08/03 10:05:40;;;;;;;2.35;0.50;;;;;;;;;;4954785;28;20493;-75
2023/08/03 10:08:19;;;;;;;1.45;0.60;;;;;;;;;;4939121;28;20043;-75
2023/08/03 10:10:49;;;;;;;1.42;0.40;;;;;;;;;;4973856;28;20110;-76
2023/08/03 10:13:14;;;;;;;1.98;0.50;;;;;;;;;;4943010;28;20042;-76
2023/08/03 10:15:41;;;;;;;3.20;0.50;;;;;;;;;;4976480;28;20172;-75
2023/08/03 10:18:07;;;;;;;1.98;0.63;;;;;;;;;;4957652;28;20042;-76
2023/08/03 10:20:33;;;;;;;2.10;0.50;;;;;;;;;;4942683;28;20029;-76
2023/08/03 10:23:08;;;;;;;5.30;0.65;;;;;;;;;;4958509;28;20061;-76
2023/08/03 10:25:49;;;;;;;2.33;0.38;;;;;;;;;;4943081;28;20035;-76
2023/08/03 10:28:15;;;;;;;2.15;0.50;;;;;;;;;;4975878;28;20035;-75
2023/08/03 10:30:59;;;;;;;0.98;0.47;;;;;;;;;;4958838;28;20683;-74
2023/08/03 10:33:44;;;;;;;2.88;0.52;;;;;;;;;;4975607;28;20093;-74
2023/08/03 10:36:10;;;;;;;1.45;0.47;;;;;;;;;;4974584;28;20031;-76
2023/08/03 10:38:41;;;;;;;3.08;0.60;;;;;;;;;;4942237;28;20038;-74
2023/08/03 10:41:21;;;;;;;4.97;0.50;;;;;;;;;;4958404;28;20058;-77
2023/08/03 10:44:04;;;;;;;4.53;0.70;;;;;;;;;;4975166;28;20018;-75
2023/08/03 10:46:34;;;;;;;1.88;0.63;;;;;;;;;;4975388;28;20031;-76
2023/08/03 10:48:59;;;;;;;4.97;0.65;;;;;;;;;;4957868;28;20081;-75
2023/08/03 10:51:25;;;;;;;2.92;0.50;;;;;;;;;;4957987;28;20398;-76
2023/08/03 10:53:51;;;;;;;1.88;0.45;;;;;;;;;;4956846;28;20049;-76
2023/08/03 10:56:17;;;;;;;3.28;0.50;;;;;;;;;;4942169;28;20031;-76
2023/08/03 10:58:47;;;;;;;3.60;0.55;;;;;;;;;;4976061;28;20092;-75
2023/08/03 11:01:14;;;;;;;0.70;0.25;;;;;;;;;;4958039;28;20501;-76
2023/08/03 11:03:40;;;;;;;3.05;0.47;;;;;;;;;;4941430;28;20046;-75
2023/08/03 11:06:06;;;;;;;3.22;0.38;;;;;;;;;;4957775;28;20532;-74
2023/08/03 11:08:35;;;;;;;7.63;0.73;;;;;;;;;;4975460;28;20066;-75
2023/08/03 11:11:00;;;;;;;0.95;0.40;;;;;;;;;;4957056;28;20505;-75
2023/08/03 11:13:27;;;;;;;3.03;0.75;;;;;;;;;;4941980;28;20030;-75
2023/08/03 11:15:53;;;;;;;1.60;0.85;;;;;;;;;;4942284;28;20110;-76
2023/08/03 11:18:19;;;;;;;6.55;0.77;;;;;;;;;;4926012;28;20114;-76
2023/08/03 11:20:44;;;;;;;4.18;0.93;;;;;;;;;;4957371;28;20397;-76
2023/08/03 11:23:13;;;;;;;2.65;0.52;;;;;;;;;;4941350;28;20058;-76
2023/08/03 11:25:38;;;;;;;;;;;;;;;;;;4974484;28;20433;-76
2023/08/03 11:28:04;;;;;;;1.73;0.50;;;;;;;;;;4941590;28;19910;-76
2023/08/03 11:30:29;;;;;;;0.88;0.40;;;;;;;;;;4957309;28;20027;-75
2023/08/03 11:32:56;;;;;;;3.85;0.43;;;;;;;;;;4957137;28;20066;-76
2023/08/03 11:35:22;;;;;;;3.13;0.50;;;;;;;;;;4957317;28;20122;-76
2023/08/03 11:37:47;;;;;;;4.78;0.73;;;;;;;;;;4974425;28;20106;-76
2023/08/03 11:40:14;;;;;;;2.00;0.70;;;;;;;;;;4974513;28;20338;-76
2023/08/03 11:42:43;;;;;;;2.50;0.60;;;;;;;;;;4956240;28;20502;-75
2023/08/03 11:45:09;;;;;;;10.40;0.30;;;;;;;;;;4957181;28;20073;-75
2023/08/03 11:47:44;;;;;;;1.77;0.32;;;;;;;;;;4974317;28;20027;-76
2023/08/03 11:50:10;;;;;;;0.55;0.22;;;;;;;;;;4974292;28;20355;-75
2023/08/03 11:52:36;;;;;;;2.13;0.30;;;;;;;;;;4941353;28;20532;-76
2023/08/03 11:55:02;;;;;;;0.65;0.38;;;;;;;;;;4974289;28;20030;-75
2023/08/03 12:00:13;;;;;;;1.25;0.50;;;;;;;;;;4972973;28;20042;-76
2023/08/03 12:02:39;;;;;;;2.83;0.55;;;;;;;;;;4956611;28;20038;-75
2023/08/03 12:05:06;;;;;;;3.35;0.40;;;;;;;;;;4940972;28;20049;-76
2023/08/03 12:07:32;;;;;;;3.08;0.45;;;;;;;;;;4974062;28;20058;-76
2023/08/03 12:09:58;;;;;;;2.92;0.30;;;;;;;;;;4973964;28;20118;-76
2023/08/03 12:12:24;;;;;;;2.15;0.50;;;;;;;;;;4956403;28;20158;-76
2023/08/03 12:14:49;;;;;;;2.45;0.30;;;;;;;;;;4941191;28;20035;-77
2023/08/03 12:17:15;;;;;;;5.30;0.75;;;;;;;;;;4955713;28;20367;-76
2023/08/03 12:19:41;;;;;;;1.25;0.50;;;;;;;;;;4973732;28;20045;-76
2023/08/03 12:22:06;;;;;;;2.33;0.30;;;;;;;;;;4956577;28;20125;-76
2023/08/03 12:24:32;;;;;;;2.10;0.50;;;;;;;;;;4973755;28;20078;-76
2023/08/03 12:26:58;;;;;;;4.85;0.52;;;;;;;;;;4956552;28;20525;-76
2023/08/03 12:29:23;;;;;;;0.93;0.40;;;;;;;;;;4956114;28;20110;-75
2023/08/03 12:31:49;;;;;;;2.05;0.50;;;;;;;;;;4939907;28;20031;-75
2023/08/03 12:34:15;;;;;;;2.92;0.40;;;;;;;;;;4971764;28;20085;-75
2023/08/03 12:36:41;;;;;;;4.03;0.60;;;;;;;;;;4956619;28;20031;-75
2023/08/03 12:39:06;;;;;;;8.10;0.63;;;;;;;;;;4956820;28;20054;-76
2023/08/03 12:41:32;;;;;;;4.88;0.73;;;;;;;;;;4975986;28;20478;-76
2023/08/03 12:43:58;;;;;;;0.63;0.30;;;;;;;;;;4944149;28;20414;-77
2023/08/03 12:46:26;;;;;;;5.18;0.50;;;;;;;;;;4962485;28;20129;-76
2023/08/03 12:48:52;;;;;;;7.38;0.77;;;;;;;;;;4942274;28;20129;-75
2023/08/03 12:51:18;;;;;;;3.28;0.60;;;;;;;;;;4973550;28;20041;-75
2023/08/03 12:53:47;;;;;;;3.33;0.68;;;;;;;;;;4941087;28;20054;-75
2023/08/03 12:56:13;;;;;;;3.20;0.57;;;;;;;;;;4956898;28;20103;-75
2023/08/03 12:58:39;;;;;;;2.33;0.52;;;;;;;;;;4940365;28;20027;-75
2023/08/03 13:01:04;;;;;;;3.63;0.70;;;;;;;;;;4941229;28;20031;-75
2023/08/03 13:03:30;;;;;;;2.75;0.63;;;;;;;;;;4940629;28;20510;-75
2023/08/03 13:05:56;;;;;;;5.55;0.80;;;;;;;;;;4961684;28;20019;-75
2023/08/03 13:08:22;;;;;;;5.55;0.77;;;;;;;;;;4972973;28;20065;-75
2023/08/03 13:10:49;;;;;;;7.63;0.52;;;;;;;;;;4957611;28;20050;-75
2023/08/03 13:13:17;;;;;;;5.25;0.73;;;;;;;;;;4976083;28;20061;-77
2023/08/03 13:15:43;;;;;;;0.47;0.32;;;;;;;;;;4974955;28;20085;-75
2023/08/03 13:18:08;;;;;;;0.80;0.30;;;;;;;;;;4924716;28;20085;-76
2023/08/03 13:20:34;;;;;;;5.07;0.30;;;;;;;;;;4973614;28;20030;-74
2023/08/03 13:23:00;;;;;;;2.63;0.40;;;;;;;;;;4939924;28;20034;-74
2023/08/03 13:25:25;;;;;;;1.02;0.50;;;;;;;;;;4935788;29;20027;-75
2023/08/03 13:27:51;;;;;;;7.70;1.15;;;;;;;;;;4937423;29;20046;-75
2023/08/03 13:30:20;;;;;;;1.42;0.50;;;;;;;;;;4920967;29;20467;-75
2023/08/03 13:32:46;;;;;;;2.25;0.55;;;;;;;;;;4954267;29;20031;-75
2023/08/03 13:35:12;;;;;;;1.60;0.50;;;;;;;;;;4937840;29;20031;-75
2023/08/03 13:37:40;;;;;;;1.23;0.47;;;;;;;;;;4954624;29;20082;-75
2023/08/03 13:40:08;;;;;;;;;;;;;;;;;;4941954;28;20031;-75
2023/08/03 13:42:34;;;;;;;1.43;0.30;;;;;;;;;;4976253;28;19981;-74
2023/08/03 13:44:59;;;;;;;0.80;0.50;;;;;;;;;;4975017;28;20059;-75
2023/08/03 13:47:25;;;;;;;1.05;0.45;;;;;;;;;;4977035;28;20428;-75
2023/08/03 13:49:52;;;;;;;1.40;0.40;;;;;;;;;;4976829;28;20042;-77
2023/08/03 13:52:17;;;;;;;2.28;0.88;;;;;;;;;;4963145;28;20057;-76
2023/08/03 13:54:43;;;;;;;2.67;0.40;;;;;;;;;;4959637;28;20063;-76
2023/08/03 13:57:09;;;;;;;2.33;0.40;;;;;;;;;;4958196;28;20058;-76
2023/08/03 13:59:35;;;;;;;1.00;0.50;;;;;;;;;;4928523;28;20050;-77
2023/08/03 14:02:01;;;;;;;2.17;0.38;;;;;;;;;;4960567;28;20197;-76
2023/08/03 14:04:31;;;;;;;2.63;0.65;;;;;;;;;;4977010;28;20101;-76
2023/08/03 14:06:58;;;;;;;2.85;0.65;;;;;;;;;;4974758;28;20039;-77
2023/08/03 14:09:24;;;;;;;2.05;0.63;;;;;;;;;;4994218;28;20057;-79
2023/08/03 14:11:53;;;;;;;1.08;0.40;;;;;;;;;;4977411;28;20061;-76
2023/08/03 14:14:18;;;;;;;4.68;0.50;;;;;;;;;;4970789;28;20034;-77
2023/08/03 14:16:48;;;;;;;5.93;0.73;;;;;;;;;;4947762;28;20061;-76
2023/08/03 14:19:14;;;;;;;4.68;0.43;;;;;;;;;;4962382;28;20034;-75
2023/08/03 14:21:40;;;;;;;3.00;0.55;;;;;;;;;;4964778;28;20033;-77
2023/08/03 14:24:06;;;;;;;2.80;0.60;;;;;;;;;;4974623;28;20023;-78
2023/08/03 14:26:32;;;;;;;2.50;0.57;;;;;;;;;;4970714;28;20046;-78
2023/08/03 14:28:58;;;;;;;1.67;0.50;;;;;;;;;;4955839;28;20058;-77
2023/08/03 14:31:24;;;;;;;1.10;0.43;;;;;;;;;;4974650;28;20050;-77
2023/08/03 14:33:49;;;;;;;2.08;0.45;;;;;;;;;;4953729;28;20039;-76
2023/08/03 14:36:15;;;;;;;2.05;0.75;;;;;;;;;;4963147;28;20030;-75
2023/08/03 14:38:41;;;;;;;1.73;0.52;;;;;;;;;;4987711;28;20030;-78
2023/08/03 14:41:18;;;;;;;2.25;0.40;;;;;;;;;;4958959;23;20051;-75
2023/08/03 14:43:44;;;;;;;2.75;0.70;;;;;;;;;;4920104;29;20062;-76
2023/08/03 14:46:10;;;;;;;0.40;0.32;;;;;;;;;;4904613;29;20052;-76
2023/08/03 14:48:36;;;;;;;1.63;0.50;;;;;;;;;;4931197;29;20035;-76
2023/08/03 14:51:01;;;;;;;1.33;0.35;;;;;;;;;;4919848;29;20046;-75